Time;durP1;ratioP1;P1;durP2;ratioP2;P2;SDS_P1;SDS_P2;PMS_P1;PMS_P2;Temp;Humidity;BMP_temperature;BMP_pressure;BME280_temperature;BME280_humidity;BME280_pressure;Samples;Min_cycle;Max_cycle;Signal;HPM_P1;HPM_P2
2022/10/29 00:02:18;;;;;;;17.60;16.63;;;;;;;;;;4996612;28;20026;-61
2022/10/29 00:04:43;;;;;;;18.92;17.77;;;;;;;;;;4998242;28;20113;-61
2022/10/29 00:07:09;;;;;;;18.33;17.30;;;;;;;;;;4994127;28;20064;-61
2022/10/29 00:09:34;;;;;;;18.10;17.00;;;;;;;;;;4995321;28;20080;-62
2022/10/29 00:12:00;;;;;;;18.23;17.10;;;;;;;;;;4998487;28;20099;-62
2022/10/29 00:14:25;;;;;;;17.13;16.05;;;;;;;;;;4998273;28;20037;-61
2022/10/29 00:16:50;;;;;;;17.13;16.15;;;;;;;;;;4999075;28;20034;-62
2022/10/29 00:19:16;;;;;;;21.45;16.15;;;;;;;;;;4997391;28;20076;-62
2022/10/29 00:21:41;;;;;;;18.15;16.85;;;;;;;;;;4998065;28;20157;-62
2022/10/29 00:24:08;;;;;;;18.20;16.50;;;;;;;;;;4995436;28;20030;-62
2022/10/29 00:26:34;;;;;;;16.55;15.55;;;;;;;;;;4997696;28;20038;-62
2022/10/29 00:28:59;;;;;;;16.65;15.65;;;;;;;;;;4997185;28;20118;-62
2022/10/29 00:31:25;;;;;;;18.98;17.15;;;;;;;;;;4993638;28;20034;-62
2022/10/29 00:33:52;;;;;;;17.67;16.67;;;;;;;;;;4996095;28;20025;-61
2022/10/29 00:36:23;;;;;;;19.02;17.92;;;;;;;;;;4996069;28;20153;-61
2022/10/29 00:38:49;;;;;;;19.05;17.85;;;;;;;;;;4997945;28;20466;-61
2022/10/29 00:41:21;;;;;;;19.75;17.50;;;;;;;;;;4999185;28;20076;-61
2022/10/29 00:43:49;;;;;;;18.17;17.13;;;;;;;;;;4994010;28;20323;-61
2022/10/29 00:46:23;;;;;;;17.25;16.05;;;;;;;;;;4997537;28;20360;-61
2022/10/29 00:48:51;;;;;;;16.13;15.23;;;;;;;;;;5011679;28;20026;-61
2022/10/29 00:51:17;;;;;;;19.17;17.75;;;;;;;;;;4995572;28;20306;-61
2022/10/29 00:53:48;;;;;;;18.52;17.13;;;;;;;;;;4995638;28;20026;-61
2022/10/29 00:56:15;;;;;;;16.35;15.38;;;;;;;;;;4998621;28;20052;-61
2022/10/29 00:58:41;;;;;;;15.30;14.30;;;;;;;;;;4995373;28;20033;-61
2022/10/29 01:01:07;;;;;;;16.75;14.07;;;;;;;;;;4995099;28;20033;-61
2022/10/29 01:03:32;;;;;;;15.10;14.20;;;;;;;;;;4996455;28;20431;-61
2022/10/29 01:05:59;;;;;;;13.77;12.88;;;;;;;;;;4999019;28;20068;-61
2022/10/29 01:08:25;;;;;;;15.90;14.80;;;;;;;;;;4995518;28;20042;-62
2022/10/29 01:11:02;;;;;;;15.63;14.65;;;;;;;;;;4993924;28;20102;-62
2022/10/29 01:13:35;;;;;;;13.52;12.70;;;;;;;;;;4995271;28;20235;-62
2022/10/29 01:16:06;;;;;;;15.50;14.43;;;;;;;;;;4996482;28;20208;-62
2022/10/29 01:18:45;;;;;;;14.57;13.68;;;;;;;;;;4997431;28;20154;-62
2022/10/29 01:21:41;;;;;;;15.02;14.18;;;;;;;;;;4996231;28;20445;-61
2022/10/29 01:24:18;;;;;;;17.30;15.88;;;;;;;;;;4994277;28;20026;-61
2022/10/29 01:27:10;;;;;;;15.75;14.65;;;;;;;;;;4996261;28;20053;-61
2022/10/29 01:30:13;;;;;;;14.88;13.98;;;;;;;;;;4994231;28;20553;-61
2022/10/29 01:33:08;;;;;;;15.15;14.27;;;;;;;;;;4970236;28;20126;-61
2022/10/29 01:36:03;;;;;;;15.10;14.15;;;;;;;;;;4994442;28;20026;-61
2022/10/29 01:38:54;;;;;;;13.77;12.90;;;;;;;;;;4987026;28;20093;-61
2022/10/29 01:41:49;;;;;;;15.65;14.65;;;;;;;;;;4993662;28;20093;-61
2022/10/29 01:44:29;;;;;;;14.88;14.00;;;;;;;;;;4996760;28;20034;-61
2022/10/29 01:47:02;;;;;;;16.43;15.13;;;;;;;;;;4993026;28;20057;-61
2022/10/29 01:49:34;;;;;;;15.80;14.70;;;;;;;;;;4990717;28;20033;-61
2022/10/29 01:52:01;;;;;;;15.13;14.13;;;;;;;;;;4992622;28;20468;-61
2022/10/29 01:54:27;;;;;;;16.05;14.88;;;;;;;;;;5001284;28;20482;-61
2022/10/29 01:56:57;;;;;;;15.52;14.63;;;;;;;;;;4995924;28;20033;-61
2022/10/29 01:59:26;;;;;;;15.07;14.18;;;;;;;;;;4994809;28;20061;-61
2022/10/29 02:02:17;;;;;;;14.48;13.63;;;;;;;;;;4994849;28;20437;-61
2022/10/29 02:05:01;;;;;;;14.70;13.80;;;;;;;;;;4994964;28;20037;-61
2022/10/29 02:07:41;;;;;;;15.77;14.88;;;;;;;;;;4995198;28;20030;-61
2022/10/29 02:10:15;;;;;;;15.47;14.47;;;;;;;;;;4994902;28;20118;-61
2022/10/29 02:12:47;;;;;;;14.55;13.68;;;;;;;;;;5001114;28;20048;-61
2022/10/29 02:15:28;;;;;;;16.10;15.00;;;;;;;;;;4993591;28;20119;-60
2022/10/29 02:17:58;;;;;;;17.50;13.82;;;;;;;;;;4995304;28;20034;-60
2022/10/29 02:20:24;;;;;;;13.70;12.43;;;;;;;;;;4991683;28;20045;-60
2022/10/29 02:22:49;;;;;;;13.27;12.48;;;;;;;;;;4993161;28;20021;-60
2022/10/29 02:25:14;;;;;;;14.77;13.52;;;;;;;;;;4993184;28;20096;-60
2022/10/29 02:27:40;;;;;;;14.02;13.15;;;;;;;;;;4994984;28;20037;-60
2022/10/29 02:30:07;;;;;;;11.95;11.20;;;;;;;;;;4994572;28;20076;-60
2022/10/29 02:32:32;;;;;;;12.82;12.02;;;;;;;;;;4995205;28;20038;-60
2022/10/29 02:34:59;;;;;;;11.27;10.57;;;;;;;;;;4992332;28;20041;-61
2022/10/29 02:37:25;;;;;;;12.05;11.25;;;;;;;;;;4993068;28;20045;-61
2022/10/29 02:39:50;;;;;;;26.40;11.05;;;;;;;;;;4991918;28;20026;-60
2022/10/29 02:42:16;;;;;;;10.95;10.07;;;;;;;;;;4994878;28;20372;-60
2022/10/29 02:44:41;;;;;;;11.07;10.38;;;;;;;;;;4994226;28;20087;-60
2022/10/29 02:47:06;;;;;;;10.45;9.75;;;;;;;;;;4995633;28;20460;-60
2022/10/29 02:49:32;;;;;;;10.95;10.15;;;;;;;;;;4995241;28;20046;-60
2022/10/29 02:51:57;;;;;;;10.13;9.52;;;;;;;;;;4996575;28;20041;-60
2022/10/29 02:54:22;;;;;;;10.23;9.43;;;;;;;;;;4993750;28;20041;-60
2022/10/29 02:56:48;;;;;;;9.70;9.10;;;;;;;;;;4993665;28;20375;-60
2022/10/29 02:59:13;;;;;;;10.32;9.63;;;;;;;;;;4994498;28;20030;-60
2022/10/29 03:01:38;;;;;;;9.50;8.85;;;;;;;;;;4992055;28;20026;-60
2022/10/29 03:04:05;;;;;;;10.13;9.43;;;;;;;;;;4995059;28;20069;-60
2022/10/29 03:06:30;;;;;;;9.88;9.18;;;;;;;;;;4995893;28;20026;-61
2022/10/29 03:08:55;;;;;;;9.50;8.90;;;;;;;;;;4994274;28;20049;-61
2022/10/29 03:11:21;;;;;;;9.65;9.02;;;;;;;;;;4994107;28;20053;-61
2022/10/29 03:13:46;;;;;;;8.95;7.97;;;;;;;;;;4991787;28;20113;-61
2022/10/29 03:16:12;;;;;;;9.35;8.75;;;;;;;;;;4993769;28;20054;-61
2022/10/29 03:18:37;;;;;;;10.18;9.43;;;;;;;;;;4993867;28;20118;-61
2022/10/29 03:21:02;;;;;;;10.02;9.27;;;;;;;;;;5006129;28;20349;-61
2022/10/29 03:23:28;;;;;;;9.85;9.15;;;;;;;;;;4998014;28;20061;-61
2022/10/29 03:25:55;;;;;;;8.88;8.27;;;;;;;;;;4998641;28;20471;-61
2022/10/29 03:28:21;;;;;;;18.42;8.80;;;;;;;;;;4997491;28;20267;-60
2022/10/29 03:30:47;;;;;;;9.23;8.55;;;;;;;;;;4995800;28;20366;-60
2022/10/29 03:33:13;;;;;;;8.95;8.35;;;;;;;;;;4996984;28;20031;-60
2022/10/29 03:35:38;;;;;;;9.45;8.75;;;;;;;;;;4999107;28;20069;-60
2022/10/29 03:38:04;;;;;;;9.70;9.00;;;;;;;;;;5001105;28;20052;-60
2022/10/29 03:40:29;;;;;;;9.30;8.70;;;;;;;;;;4999080;28;20102;-60
2022/10/29 03:42:55;;;;;;;8.90;8.30;;;;;;;;;;4996817;28;20119;-60
2022/10/29 03:45:20;;;;;;;10.18;9.35;;;;;;;;;;5004182;28;20049;-60
2022/10/29 03:47:46;;;;;;;8.80;8.20;;;;;;;;;;4997766;28;20033;-60
2022/10/29 03:50:11;;;;;;;9.48;8.70;;;;;;;;;;4998595;28;20077;-61
2022/10/29 03:52:37;;;;;;;9.63;8.93;;;;;;;;;;5000463;28;20341;-61
2022/10/29 03:55:03;;;;;;;12.73;9.38;;;;;;;;;;4995100;28;20034;-61
2022/10/29 03:57:29;;;;;;;9.18;8.57;;;;;;;;;;4995252;28;20034;-61
2022/10/29 03:59:55;;;;;;;9.68;8.98;;;;;;;;;;4997855;28;20040;-61
2022/10/29 04:02:20;;;;;;;9.88;9.18;;;;;;;;;;4995752;28;20030;-61
2022/10/29 04:04:46;;;;;;;8.40;7.80;;;;;;;;;;4997429;28;20060;-61
2022/10/29 04:07:11;;;;;;;9.70;8.90;;;;;;;;;;4994171;28;20060;-61
2022/10/29 04:09:36;;;;;;;8.60;8.00;;;;;;;;;;4995474;28;20038;-61
2022/10/29 04:12:02;;;;;;;8.90;8.30;;;;;;;;;;4998609;28;20053;-61
2022/10/29 04:14:28;;;;;;;8.85;8.25;;;;;;;;;;4995962;28;20034;-59
2022/10/29 04:16:53;;;;;;;9.35;8.75;;;;;;;;;;4997381;28;20034;-61
2022/10/29 04:19:18;;;;;;;8.43;7.82;;;;;;;;;;4996345;28;20026;-60
2022/10/29 04:21:44;;;;;;;8.90;8.30;;;;;;;;;;4995452;28;20029;-61
2022/10/29 04:24:09;;;;;;;9.52;8.70;;;;;;;;;;4996651;28;20026;-60
2022/10/29 04:26:34;;;;;;;9.10;8.40;;;;;;;;;;4997650;28;20404;-59
2022/10/29 04:29:00;;;;;;;8.93;8.32;;;;;;;;;;4995742;28;20026;-60
2022/10/29 04:31:25;;;;;;;15.18;10.48;;;;;;;;;;4996748;28;20517;-60
2022/10/29 04:33:54;;;;;;;10.95;9.90;;;;;;;;;;4994618;28;20022;-60
2022/10/29 04:36:19;;;;;;;8.90;8.30;;;;;;;;;;4996692;28;20033;-60
2022/10/29 04:38:44;;;;;;;8.32;7.78;;;;;;;;;;4997270;28;20427;-60
2022/10/29 04:41:10;;;;;;;9.30;8.70;;;;;;;;;;4996176;28;20040;-60
2022/10/29 04:43:35;;;;;;;8.82;8.25;;;;;;;;;;4996377;28;20061;-60
2022/10/29 04:46:01;;;;;;;8.98;8.38;;;;;;;;;;4996581;28;20361;-61
2022/10/29 04:48:27;;;;;;;8.85;8.25;;;;;;;;;;4997265;28;20654;-61
2022/10/29 04:50:53;;;;;;;11.57;10.63;;;;;;;;;;4998783;28;20033;-60
2022/10/29 04:53:19;;;;;;;10.65;9.95;;;;;;;;;;4996279;28;20495;-61
2022/10/29 04:55:44;;;;;;;9.93;9.30;;;;;;;;;;4998216;28;20049;-60
2022/10/29 04:58:15;;;;;;;9.93;9.27;;;;;;;;;;4995460;28;20026;-61
2022/10/29 05:00:41;;;;;;;;;;;;;;;;;;4998982;28;20124;-62
2022/10/29 05:03:06;;;;;;;10.43;9.60;;;;;;;;;;4995639;28;20020;-63
2022/10/29 05:05:32;;;;;;;10.43;9.73;;;;;;;;;;4998104;28;20101;-62
2022/10/29 05:08:01;;;;;;;9.77;9.18;;;;;;;;;;4997899;28;20084;-64
2022/10/29 05:10:29;;;;;;;9.65;9.05;;;;;;;;;;4997538;28;20030;-64
2022/10/29 05:13:00;;;;;;;10.70;10.00;;;;;;;;;;4996060;28;20652;-62
2022/10/29 05:15:27;;;;;;;10.98;10.18;;;;;;;;;;4997416;28;20738;-62
2022/10/29 05:17:52;;;;;;;10.38;9.77;;;;;;;;;;4994056;28;20049;-62
2022/10/29 05:20:18;;;;;;;10.43;9.73;;;;;;;;;;4997732;28;20044;-62
2022/10/29 05:22:43;;;;;;;11.75;10.73;;;;;;;;;;4996254;28;20057;-62
2022/10/29 05:25:09;;;;;;;11.43;10.65;;;;;;;;;;4997408;28;20034;-62
2022/10/29 05:27:34;;;;;;;10.48;9.77;;;;;;;;;;4998060;28;20041;-62
2022/10/29 05:29:59;;;;;;;10.65;9.93;;;;;;;;;;4994526;28;20069;-60
2022/10/29 05:32:27;;;;;;;9.43;8.82;;;;;;;;;;4994534;28;20436;-63
2022/10/29 05:34:52;;;;;;;12.93;9.20;;;;;;;;;;4996072;28;20512;-62
2022/10/29 05:37:18;;;;;;;10.48;9.68;;;;;;;;;;4996107;28;20038;-61
2022/10/29 05:39:43;;;;;;;10.57;9.73;;;;;;;;;;5001470;28;20057;-62
2022/10/29 05:42:08;;;;;;;9.35;8.75;;;;;;;;;;4997551;28;20516;-63
2022/10/29 05:44:34;;;;;;;10.13;9.32;;;;;;;;;;4997162;28;20034;-62
2022/10/29 05:46:59;;;;;;;11.75;10.52;;;;;;;;;;4994156;28;20037;-62
2022/10/29 05:49:24;;;;;;;10.27;9.57;;;;;;;;;;4994348;28;20041;-63
2022/10/29 05:51:51;;;;;;;10.13;9.43;;;;;;;;;;4997138;28;20512;-63
2022/10/29 05:54:17;;;;;;;11.32;10.18;;;;;;;;;;4995462;28;20435;-63
2022/10/29 05:56:42;;;;;;;9.02;8.43;;;;;;;;;;4994663;28;20464;-63
2022/10/29 05:59:08;;;;;;;11.93;10.93;;;;;;;;;;4997886;28;20100;-62
2022/10/29 06:01:33;;;;;;;13.88;11.30;;;;;;;;;;4998774;28;20116;-63
2022/10/29 06:04:00;;;;;;;10.70;10.00;;;;;;;;;;4996173;28;20380;-62
2022/10/29 06:06:26;;;;;;;10.60;9.90;;;;;;;;;;4995877;28;20187;-63
2022/10/29 06:08:51;;;;;;;17.83;10.55;;;;;;;;;;4999679;28;20108;-62
2022/10/29 06:11:16;;;;;;;12.00;10.82;;;;;;;;;;4998750;28;20052;-62
2022/10/29 06:13:41;;;;;;;10.77;10.07;;;;;;;;;;4997848;28;20030;-62
2022/10/29 06:16:07;;;;;;;13.68;12.68;;;;;;;;;;4998127;28;20368;-63
2022/10/29 06:18:32;;;;;;;12.80;11.70;;;;;;;;;;4995027;28;20482;-62
2022/10/29 06:20:59;;;;;;;11.52;10.60;;;;;;;;;;4998807;28;20121;-61
2022/10/29 06:23:25;;;;;;;11.60;10.80;;;;;;;;;;4997520;28;20022;-62
2022/10/29 06:25:50;;;;;;;11.50;10.77;;;;;;;;;;4996236;28;20045;-61
2022/10/29 06:28:17;;;;;;;12.70;11.75;;;;;;;;;;4996095;28;20030;-62
2022/10/29 06:30:48;;;;;;;12.57;11.60;;;;;;;;;;4994209;28;20038;-63
2022/10/29 06:33:14;;;;;;;12.55;11.55;;;;;;;;;;4997531;28;20511;-62
2022/10/29 06:35:40;;;;;;;11.25;10.50;;;;;;;;;;4998776;28;20041;-62
2022/10/29 06:38:05;;;;;;;14.52;10.75;;;;;;;;;;4997015;28;20036;-64
2022/10/29 06:40:30;;;;;;;12.00;11.27;;;;;;;;;;4999602;28;20483;-61
2022/10/29 06:43:00;;;;;;;11.13;10.43;;;;;;;;;;4999212;28;20176;-61
2022/10/29 06:45:27;;;;;;;11.30;10.50;;;;;;;;;;4996790;28;20683;-62
2022/10/29 06:47:52;;;;;;;11.65;10.88;;;;;;;;;;4997653;28;20625;-62
2022/10/29 06:50:18;;;;;;;11.63;10.93;;;;;;;;;;4997115;28;20038;-62
2022/10/29 06:52:53;;;;;;;11.15;10.35;;;;;;;;;;5001676;28;20030;-61
2022/10/29 06:55:18;;;;;;;11.15;10.45;;;;;;;;;;4997876;28;20041;-61
2022/10/29 06:57:43;;;;;;;16.50;10.60;;;;;;;;;;5000516;28;20057;-60
2022/10/29 07:00:09;;;;;;;10.70;10.00;;;;;;;;;;5000038;28;20045;-60
2022/10/29 07:02:34;;;;;;;11.45;10.65;;;;;;;;;;4999851;28;20109;-60
2022/10/29 07:05:00;;;;;;;10.82;10.13;;;;;;;;;;5001386;28;20360;-60
2022/10/29 07:07:27;;;;;;;11.82;10.93;;;;;;;;;;4999463;28;20042;-60
2022/10/29 07:09:52;;;;;;;11.93;11.02;;;;;;;;;;4999597;28;20468;-60
2022/10/29 07:12:18;;;;;;;10.85;9.95;;;;;;;;;;4999861;28;20060;-62
2022/10/29 07:14:43;;;;;;;11.25;10.48;;;;;;;;;;4995872;28;20026;-61
2022/10/29 07:17:08;;;;;;;10.77;10.07;;;;;;;;;;5000441;28;20124;-61
2022/10/29 07:19:34;;;;;;;9.75;9.15;;;;;;;;;;4998559;28;20026;-61
2022/10/29 07:21:59;;;;;;;11.75;10.80;;;;;;;;;;4999137;28;20901;-61
2022/10/29 07:24:24;;;;;;;9.88;9.27;;;;;;;;;;5002220;28;20046;-60
2022/10/29 07:26:50;;;;;;;10.00;9.30;;;;;;;;;;5001979;28;20045;-61
2022/10/29 07:29:15;;;;;;;9.30;8.70;;;;;;;;;;5001649;28;20042;-61
2022/10/29 07:31:40;;;;;;;9.73;9.13;;;;;;;;;;5000000;28;20030;-61
2022/10/29 07:34:06;;;;;;;10.00;9.30;;;;;;;;;;4998604;28;20524;-61
2022/10/29 07:36:31;;;;;;;10.00;9.38;;;;;;;;;;4999724;28;20034;-60
2022/10/29 07:38:56;;;;;;;11.30;10.35;;;;;;;;;;4996585;28;20087;-60
2022/10/29 07:41:22;;;;;;;10.20;9.40;;;;;;;;;;4998982;28;20073;-60
2022/10/29 07:43:47;;;;;;;10.18;9.48;;;;;;;;;;5001169;28;20556;-61
2022/10/29 07:46:12;;;;;;;9.57;8.98;;;;;;;;;;5001435;28;20468;-59
2022/10/29 07:48:38;;;;;;;9.88;9.27;;;;;;;;;;5000194;28;20066;-60
2022/10/29 07:51:03;;;;;;;12.10;11.20;;;;;;;;;;5001736;28;20030;-60
2022/10/29 07:53:30;;;;;;;9.80;9.15;;;;;;;;;;4997357;28;20039;-60
2022/10/29 07:55:56;;;;;;;10.07;9.38;;;;;;;;;;4995654;28;20056;-60
2022/10/29 07:58:22;;;;;;;10.52;9.63;;;;;;;;;;4997823;28;20030;-60
2022/10/29 08:00:48;;;;;;;9.45;8.85;;;;;;;;;;4999509;28;20349;-60
2022/10/29 08:03:13;;;;;;;11.50;10.65;;;;;;;;;;4997764;28;20033;-60
2022/10/29 08:05:39;;;;;;;10.43;9.48;;;;;;;;;;5000257;28;20097;-61
2022/10/29 08:08:05;;;;;;;11.05;10.25;;;;;;;;;;5001131;28;20609;-59
2022/10/29 08:10:32;;;;;;;11.18;10.38;;;;;;;;;;4999308;28;20086;-60
2022/10/29 08:13:00;;;;;;;10.73;9.98;;;;;;;;;;4998649;28;20372;-60
2022/10/29 08:15:28;;;;;;;10.93;10.23;;;;;;;;;;4999552;28;20120;-60
2022/10/29 08:17:55;;;;;;;9.52;8.93;;;;;;;;;;4997493;28;20531;-60
2022/10/29 08:20:21;;;;;;;10.20;9.40;;;;;;;;;;4998945;28;20095;-59
2022/10/29 08:22:46;;;;;;;10.32;9.52;;;;;;;;;;5006780;28;20061;-60
2022/10/29 08:25:12;;;;;;;10.77;10.07;;;;;;;;;;4996503;28;20401;-60
2022/10/29 08:27:37;;;;;;;11.90;10.88;;;;;;;;;;4997718;28;20049;-60
2022/10/29 08:30:08;;;;;;;10.90;10.00;;;;;;;;;;5000431;28;20420;-60
2022/10/29 08:32:34;;;;;;;26.02;11.32;;;;;;;;;;4998343;28;20941;-60
2022/10/29 08:34:59;;;;;;;11.55;10.75;;;;;;;;;;4997548;28;20125;-60
2022/10/29 08:37:25;;;;;;;11.80;10.95;;;;;;;;;;4998019;28;20484;-60
2022/10/29 08:39:50;;;;;;;12.52;11.73;;;;;;;;;;4998332;28;20595;-60
2022/10/29 08:42:34;;;;;;;11.45;10.65;;;;;;;;;;4998091;28;20022;-60
2022/10/29 08:45:34;;;;;;;11.80;11.02;;;;;;;;;;4998200;28;20562;-60
2022/10/29 08:48:15;;;;;;;11.85;11.10;;;;;;;;;;4982451;28;20537;-60
2022/10/29 08:50:45;;;;;;;12.60;11.77;;;;;;;;;;5004145;28;20048;-60
2022/10/29 08:53:22;;;;;;;12.15;11.43;;;;;;;;;;4996514;28;20327;-60
2022/10/29 08:55:48;;;;;;;12.20;11.27;;;;;;;;;;4999038;28;20125;-61
2022/10/29 08:58:26;;;;;;;14.65;12.70;;;;;;;;;;4998612;28;20584;-60
2022/10/29 09:00:55;;;;;;;13.07;12.25;;;;;;;;;;4996332;28;20519;-60
2022/10/29 09:03:21;;;;;;;12.82;12.02;;;;;;;;;;4998086;28;20511;-60
2022/10/29 09:06:05;;;;;;;13.68;12.88;;;;;;;;;;4995319;28;20160;-61
2022/10/29 09:08:47;;;;;;;11.57;10.88;;;;;;;;;;4995602;28;20053;-61
2022/10/29 09:11:38;;;;;;;12.48;11.68;;;;;;;;;;4996993;28;20113;-60
2022/10/29 09:14:43;;;;;;;11.93;11.23;;;;;;;;;;4997103;28;20558;-60
2022/10/29 09:17:14;;;;;;;12.15;11.35;;;;;;;;;;4997643;28;20107;-60
2022/10/29 09:19:40;;;;;;;14.02;13.13;;;;;;;;;;4997641;28;20073;-61
2022/10/29 09:22:21;;;;;;;12.05;11.25;;;;;;;;;;4998430;28;20152;-60
2022/10/29 09:25:22;;;;;;;10.73;10.02;;;;;;;;;;4997945;28;20030;-60
2022/10/29 09:27:56;;;;;;;;;;;;;;;;;;4996255;28;20044;-60
2022/10/29 09:30:22;;;;;;;12.10;10.98;;;;;;;;;;4995187;28;20033;-60
2022/10/29 09:33:01;;;;;;;14.43;11.50;;;;;;;;;;4996367;28;20071;-60
2022/10/29 09:35:46;;;;;;;11.95;11.18;;;;;;;;;;4996526;28;20040;-61
2022/10/29 09:38:22;;;;;;;13.88;13.02;;;;;;;;;;4998276;28;20133;-60
2022/10/29 09:40:47;;;;;;;14.07;13.13;;;;;;;;;;4999747;28;20125;-59
2022/10/29 09:43:42;;;;;;;11.05;10.35;;;;;;;;;;4998794;28;20467;-60
2022/10/29 09:46:18;;;;;;;11.60;10.80;;;;;;;;;;4996323;28;20034;-60
2022/10/29 09:48:58;;;;;;;11.15;10.45;;;;;;;;;;4996476;28;20088;-60
2022/10/29 09:51:39;;;;;;;11.25;10.55;;;;;;;;;;4998149;28;20091;-60
2022/10/29 09:54:05;;;;;;;11.90;11.10;;;;;;;;;;4996464;28;20064;-59
2022/10/29 09:56:30;;;;;;;13.20;12.23;;;;;;;;;;5001319;28;20495;-60
2022/10/29 09:59:17;;;;;;;12.50;11.45;;;;;;;;;;4995770;28;20030;-60
2022/10/29 10:01:45;;;;;;;9.85;9.15;;;;;;;;;;4993530;28;20082;-61
2022/10/29 10:04:25;;;;;;;11.55;10.68;;;;;;;;;;4994781;28;20582;-62
2022/10/29 10:07:14;;;;;;;10.32;9.63;;;;;;;;;;4995065;28;20056;-60
2022/10/29 10:09:52;;;;;;;9.75;9.07;;;;;;;;;;4995586;28;20069;-60
2022/10/29 10:12:20;;;;;;;9.45;8.75;;;;;;;;;;5000127;28;20070;-60
2022/10/29 10:14:46;;;;;;;10.02;9.32;;;;;;;;;;4995285;28;20530;-61
2022/10/29 10:17:13;;;;;;;10.98;10.20;;;;;;;;;;4999301;28;20038;-61
2022/10/29 10:19:43;;;;;;;13.32;12.15;;;;;;;;;;4995148;28;20030;-61
2022/10/29 10:22:18;;;;;;;12.73;11.93;;;;;;;;;;4999959;28;20326;-61
2022/10/29 10:24:43;;;;;;;12.52;11.73;;;;;;;;;;4997894;28;20029;-61
2022/10/29 10:27:18;;;;;;;19.35;18.15;;;;;;;;;;4996504;28;20046;-60
2022/10/29 10:30:03;;;;;;;18.33;17.27;;;;;;;;;;4997138;28;20022;-61
2022/10/29 10:32:30;;;;;;;20.85;19.60;;;;;;;;;;4996943;28;20508;-61
2022/10/29 10:34:55;;;;;;;24.13;22.83;;;;;;;;;;4996356;28;20038;-60
2022/10/29 10:37:22;;;;;;;29.05;27.45;;;;;;;;;;4998635;28;20041;-60
2022/10/29 10:39:52;;;;;;;22.35;21.13;;;;;;;;;;4997135;28;20041;-60
2022/10/29 10:42:24;;;;;;;45.58;43.20;;;;;;;;;;4993028;28;20026;-61
2022/10/29 10:44:53;;;;;;;52.00;49.35;;;;;;;;;;4995466;28;20109;-61
2022/10/29 10:47:22;;;;;;;59.75;56.63;;;;;;;;;;4998570;28;20042;-60
2022/10/29 10:49:48;;;;;;;55.45;52.60;;;;;;;;;;4996245;28;20091;-61
2022/10/29 10:52:29;;;;;;;53.97;51.22;;;;;;;;;;4997708;28;20041;-61
2022/10/29 10:55:16;;;;;;;54.10;51.33;;;;;;;;;;4996964;28;20033;-61
2022/10/29 10:57:48;;;;;;;51.47;48.65;;;;;;;;;;4993629;28;20422;-61
2022/10/29 11:00:19;;;;;;;54.22;51.33;;;;;;;;;;4995569;28;20030;-62
2022/10/29 11:03:07;;;;;;;58.85;55.83;;;;;;;;;;4995712;28;20179;-60
2022/10/29 11:06:00;;;;;;;49.20;46.70;;;;;;;;;;4997266;28;20657;-60
2022/10/29 11:08:32;;;;;;;53.47;50.72;;;;;;;;;;4962820;28;20513;-60
2022/10/29 11:11:05;;;;;;;55.85;52.97;;;;;;;;;;4997846;28;20038;-61
2022/10/29 11:13:32;;;;;;;55.05;52.00;;;;;;;;;;4997856;28;20121;-61
2022/10/29 11:16:12;;;;;;;58.83;55.78;;;;;;;;;;4997796;28;20041;-61
2022/10/29 11:18:48;;;;;;;54.83;52.00;;;;;;;;;;4990800;28;20443;-62
2022/10/29 11:21:17;;;;;;;54.13;51.30;;;;;;;;;;4995523;28;20395;-60
2022/10/29 11:24:01;;;;;;;53.70;50.72;;;;;;;;;;4994842;28;20041;-61
2022/10/29 11:26:47;;;;;;;49.50;46.90;;;;;;;;;;4996654;28;20092;-61
2022/10/29 11:29:12;;;;;;;52.28;49.60;;;;;;;;;;4996017;28;20029;-60
2022/10/29 11:32:02;;;;;;;60.97;57.67;;;;;;;;;;4995160;28;20377;-60
2022/10/29 11:34:36;;;;;;;50.30;47.75;;;;;;;;;;4954867;28;20104;-60
2022/10/29 11:37:12;;;;;;;52.85;50.15;;;;;;;;;;4996478;28;20053;-60
2022/10/29 11:39:40;;;;;;;49.33;46.78;;;;;;;;;;4992947;28;20782;-60
2022/10/29 11:42:08;;;;;;;59.90;56.47;;;;;;;;;;5001237;28;20038;-61
2022/10/29 11:44:37;;;;;;;59.03;56.00;;;;;;;;;;4999711;28;20051;-60
2022/10/29 11:47:20;;;;;;;55.63;52.75;;;;;;;;;;4998097;28;20695;-60
2022/10/29 11:50:01;;;;;;;35.60;33.70;;;;;;;;;;5003453;28;20038;-59
2022/10/29 11:52:37;;;;;;;52.65;49.95;;;;;;;;;;5002089;28;20053;-59
2022/10/29 11:55:22;;;;;;;42.30;40.08;;;;;;;;;;4998818;28;20053;-59
2022/10/29 11:57:53;;;;;;;32.70;30.95;;;;;;;;;;5003011;28;20033;-59
2022/10/29 12:00:21;;;;;;;38.63;36.60;;;;;;;;;;4998039;28;20049;-60
2022/10/29 12:03:04;;;;;;;42.63;40.40;;;;;;;;;;4998934;28;20061;-59
2022/10/29 12:05:51;;;;;;;37.70;35.72;;;;;;;;;;5001704;28;20033;-59
2022/10/29 12:08:40;;;;;;;45.10;42.72;;;;;;;;;;4998248;28;20056;-59
2022/10/29 12:11:34;;;;;;;51.42;47.80;;;;;;;;;;4998986;28;20042;-59
2022/10/29 12:14:25;;;;;;;35.65;33.78;;;;;;;;;;4997782;28;20523;-59
2022/10/29 12:17:14;;;;;;;45.88;43.35;;;;;;;;;;4998197;28;20340;-60
2022/10/29 12:20:03;;;;;;;46.72;44.33;;;;;;;;;;4997555;28;20464;-60
2022/10/29 12:22:53;;;;;;;47.13;44.65;;;;;;;;;;5001170;28;20363;-60
2022/10/29 12:25:24;;;;;;;47.83;45.23;;;;;;;;;;4998222;28;20036;-60
2022/10/29 12:27:52;;;;;;;49.30;46.80;;;;;;;;;;5000031;28;20052;-60
2022/10/29 12:30:20;;;;;;;47.47;45.03;;;;;;;;;;4998848;28;20334;-60
2022/10/29 12:32:49;;;;;;;54.58;51.67;;;;;;;;;;4997646;28;20427;-60
2022/10/29 12:35:21;;;;;;;54.20;51.33;;;;;;;;;;4996849;28;20026;-60
2022/10/29 12:38:05;;;;;;;52.78;50.08;;;;;;;;;;5003983;28;20489;-60
2022/10/29 12:40:33;;;;;;;45.42;43.05;;;;;;;;;;4997867;28;20049;-60
2022/10/29 12:43:05;;;;;;;45.25;42.83;;;;;;;;;;4999741;28;20034;-60
2022/10/29 12:45:43;;;;;;;55.38;52.45;;;;;;;;;;4998496;28;20037;-62
2022/10/29 12:48:24;;;;;;;54.30;51.38;;;;;;;;;;5000474;28;20745;-61
2022/10/29 12:50:53;;;;;;;45.60;43.17;;;;;;;;;;4998596;28;20369;-60
2022/10/29 12:53:19;;;;;;;50.42;47.80;;;;;;;;;;4998461;28;20456;-60
2022/10/29 12:55:45;;;;;;;44.80;42.30;;;;;;;;;;4999142;28;20038;-60
2022/10/29 12:58:42;;;;;;;37.97;35.75;;;;;;;;;;4999477;28;20037;-60
2022/10/29 13:01:27;;;;;;;58.05;54.83;;;;;;;;;;4999684;28;20117;-60
2022/10/29 13:03:53;;;;;;;58.83;55.72;;;;;;;;;;4996237;28;20133;-60
2022/10/29 13:06:40;;;;;;;56.58;52.03;;;;;;;;;;4998791;28;20083;-60
2022/10/29 13:09:33;;;;;;;54.22;51.33;;;;;;;;;;4997011;28;20034;-60
2022/10/29 13:12:09;;;;;;;49.95;47.35;;;;;;;;;;5004343;28;20530;-60
2022/10/29 13:14:59;;;;;;;52.60;49.88;;;;;;;;;;4997892;28;20034;-60
2022/10/29 13:17:35;;;;;;;50.93;48.13;;;;;;;;;;4994898;28;20117;-60
2022/10/29 13:20:16;;;;;;;48.22;45.72;;;;;;;;;;4998155;28;20355;-60
2022/10/29 13:22:58;;;;;;;48.00;45.30;;;;;;;;;;4998154;28;20048;-60
2022/10/29 13:25:32;;;;;;;42.30;40.00;;;;;;;;;;4997054;28;20035;-60
2022/10/29 13:28:24;;;;;;;37.35;35.17;;;;;;;;;;4997661;28;20029;-59
2022/10/29 13:31:12;;;;;;;42.50;40.15;;;;;;;;;;4993348;28;20108;-60
2022/10/29 13:33:38;;;;;;;46.38;43.67;;;;;;;;;;4998832;28;20121;-60
2022/10/29 13:36:17;;;;;;;44.15;41.75;;;;;;;;;;4997072;28;20109;-61
2022/10/29 13:38:53;;;;;;;39.10;37.03;;;;;;;;;;4999437;28;20141;-59
2022/10/29 13:41:23;;;;;;;39.25;35.97;;;;;;;;;;4995410;28;20045;-60
2022/10/29 13:44:08;;;;;;;49.22;46.30;;;;;;;;;;5000083;28;20021;-60
2022/10/29 13:47:09;;;;;;;50.78;48.15;;;;;;;;;;4997781;28;20030;-60
2022/10/29 13:49:44;;;;;;;35.45;33.50;;;;;;;;;;4979677;28;20046;-60
2022/10/29 13:52:19;;;;;;;27.33;25.77;;;;;;;;;;4997033;28;20030;-60
2022/10/29 13:54:59;;;;;;;33.22;31.40;;;;;;;;;;4995241;28;20026;-59
2022/10/29 13:57:33;;;;;;;37.20;35.17;;;;;;;;;;4997023;28;20181;-59
2022/10/29 14:00:10;;;;;;;39.78;37.50;;;;;;;;;;4996426;28;20039;-59
2022/10/29 14:02:38;;;;;;;29.70;28.10;;;;;;;;;;4995785;28;20100;-60
2022/10/29 14:05:19;;;;;;;27.85;26.08;;;;;;;;;;4997385;28;20346;-59
2022/10/29 14:08:06;;;;;;;27.98;26.45;;;;;;;;;;4998625;28;20038;-59
2022/10/29 14:10:44;;;;;;;29.75;28.10;;;;;;;;;;4996955;28;20044;-59
2022/10/29 14:13:32;;;;;;;35.40;33.40;;;;;;;;;;4996266;28;20492;-60
2022/10/29 14:16:01;;;;;;;31.38;29.73;;;;;;;;;;4998191;28;20116;-59
2022/10/29 14:18:29;;;;;;;37.03;34.83;;;;;;;;;;4994154;28;20041;-59
2022/10/29 14:20:56;;;;;;;40.15;37.97;;;;;;;;;;4994868;28;20023;-59
2022/10/29 14:23:23;;;;;;;37.10;35.13;;;;;;;;;;4996714;28;20034;-59
2022/10/29 14:25:54;;;;;;;39.38;37.25;;;;;;;;;;4995927;28;20084;-60
2022/10/29 14:28:28;;;;;;;46.15;43.65;;;;;;;;;;4998004;28;20073;-59
2022/10/29 14:31:15;;;;;;;48.60;46.08;;;;;;;;;;5004956;28;20034;-59
2022/10/29 14:33:52;;;;;;;52.78;49.97;;;;;;;;;;4995667;28;20031;-59
2022/10/29 14:36:20;;;;;;;47.40;44.90;;;;;;;;;;4995833;28;20045;-60
2022/10/29 14:38:54;;;;;;;44.20;41.95;;;;;;;;;;4996300;28;20399;-60
2022/10/29 14:41:20;;;;;;;54.33;51.47;;;;;;;;;;4999223;28;20042;-60
2022/10/29 14:44:03;;;;;;;46.75;44.10;;;;;;;;;;4998471;28;20041;-60
2022/10/29 14:46:30;;;;;;;49.75;47.17;;;;;;;;;;4997880;28;20084;-59
2022/10/29 14:49:05;;;;;;;50.38;47.80;;;;;;;;;;4993461;28;20477;-60